Time;durP1;ratioP1;P1;durP2;ratioP2;P2;SDS_P1;SDS_P2;PMS_P1;PMS_P2;Temp;Humidity;BMP_temperature;BMP_pressure;BME280_temperature;BME280_humidity;BME280_pressure;Samples;Min_cycle;Max_cycle;Signal;HPM_P1;HPM_P2
2023/03/17 00:01:57;;;;;;;;;;;10.90;99.90;;;;;;5074471;28;20307;-61
2023/03/17 00:04:24;;;;;;;;;;;10.90;99.90;;;;;;5066205;28;20000;-61
2023/03/17 00:06:49;;;;;;;;;;;10.90;99.90;;;;;;5074357;28;19912;-61
2023/03/17 00:09:16;;;;;;;;;;;10.90;99.90;;;;;;5079545;28;19912;-61
2023/03/17 00:11:42;;;;;;;;;;;10.90;99.90;;;;;;5076379;28;19920;-61
2023/03/17 00:14:08;;;;;;;;;;;10.80;99.90;;;;;;5069847;28;20021;-62
2023/03/17 00:16:36;;;;;;;;;;;10.80;99.90;;;;;;5067527;28;20017;-62
2023/03/17 00:19:02;;;;;;;;;;;10.80;99.90;;;;;;5076869;28;20441;-62
2023/03/17 00:21:31;;;;;;;;;;;10.90;99.90;;;;;;5070933;28;19920;-60
2023/03/17 00:23:58;;;;;;;;;;;10.90;99.90;;;;;;5082740;28;19919;-61
2023/03/17 00:26:24;;;;;;;;;;;11.00;99.90;;;;;;5068117;28;20275;-61
2023/03/17 00:28:50;;;;;;;;;;;11.10;99.90;;;;;;5085798;28;19919;-61
2023/03/17 00:31:19;;;;;;;;;;;11.10;99.90;;;;;;5073146;28;19966;-62
2023/03/17 00:33:45;;;;;;;;;;;11.10;99.90;;;;;;5081335;28;19965;-61
2023/03/17 00:36:14;;;;;;;;;;;11.20;99.90;;;;;;5083900;28;19912;-61
2023/03/17 00:38:40;;;;;;;;;;;11.20;99.90;;;;;;5076302;28;19920;-61
2023/03/17 00:41:06;;;;;;;;;;;11.10;99.90;;;;;;5066894;28;20413;-61
2023/03/17 00:43:32;;;;;;;;;;;11.20;99.90;;;;;;5062313;28;19913;-61
2023/03/17 00:45:58;;;;;;;;;;;11.20;99.90;;;;;;5087608;28;19935;-61
2023/03/17 00:48:23;;;;;;;;;;;11.10;99.90;;;;;;5068369;28;19921;-61
2023/03/17 00:50:49;;;;;;;;;;;11.20;99.90;;;;;;5070250;28;20002;-61
2023/03/17 00:53:16;;;;;;;;;;;11.20;99.90;;;;;;5084408;28;19949;-62
2023/03/17 00:55:43;;;;;;;;;;;11.20;99.90;;;;;;5075312;28;19912;-62
2023/03/17 00:58:24;;;;;;;;;;;11.20;99.90;;;;;;5078516;28;19920;-61
2023/03/17 01:00:50;;;;;;;;;;;11.20;99.90;;;;;;5082798;28;20399;-62
2023/03/17 01:03:16;;;;;;;;;;;11.10;99.90;;;;;;5076757;28;19912;-61
2023/03/17 01:05:42;;;;;;;;;;;11.10;99.90;;;;;;5064081;28;19995;-61
2023/03/17 01:08:08;;;;;;;;;;;11.10;99.90;;;;;;5078431;28;19920;-61
2023/03/17 01:10:34;;;;;;;;;;;11.10;99.90;;;;;;5081588;28;19916;-61
2023/03/17 01:12:59;;;;;;;;;;;11.10;99.90;;;;;;5070450;28;19922;-62
2023/03/17 01:15:27;;;;;;;;;;;11.10;99.90;;;;;;5073049;28;19912;-62
2023/03/17 01:17:53;;;;;;;;;;;11.10;99.90;;;;;;5086134;28;20445;-62
2023/03/17 01:20:20;;;;;;;;;;;11.10;99.90;;;;;;5079062;28;20015;-61
2023/03/17 01:22:46;;;;;;;;;;;11.00;99.90;;;;;;5072812;28;19912;-61
2023/03/17 01:25:12;;;;;;;;;;;11.00;99.90;;;;;;5079444;28;20027;-61
2023/03/17 01:27:39;;;;;;;;;;;11.00;99.90;;;;;;5081843;28;20447;-62
2023/03/17 01:30:05;;;;;;;;;;;11.00;99.90;;;;;;5076534;28;20383;-62
2023/03/17 01:32:30;;;;;;;;;;;11.00;99.90;;;;;;5074169;28;19913;-61
2023/03/17 01:34:56;;;;;;;;;;;11.10;99.90;;;;;;5080761;28;19919;-61
2023/03/17 01:37:22;;;;;;;;;;;11.00;99.90;;;;;;5073608;28;20355;-60
2023/03/17 01:39:47;;;;;;;;;;;11.00;99.90;;;;;;5077925;28;19953;-61
2023/03/17 01:42:13;;;;;;;;;;;11.00;99.90;;;;;;5077428;28;20391;-61
2023/03/17 01:44:58;;;;;;;;;;;11.10;99.90;;;;;;5085361;28;19919;-61
2023/03/17 01:47:25;;;;;;;;;;;11.00;99.90;;;;;;5066123;28;19916;-61
2023/03/17 01:49:51;;;;;;;;;;;11.00;99.90;;;;;;5085444;28;19976;-61
2023/03/17 01:52:19;;;;;;;;;;;11.10;99.90;;;;;;5076475;28;20015;-60
2023/03/17 01:54:49;;;;;;;;;;;11.10;99.90;;;;;;5074192;28;19960;-60
2023/03/17 01:57:35;;;;;;;;;;;11.10;99.90;;;;;;5086096;28;19912;-60
2023/03/17 02:00:04;;;;;;;;;;;11.10;99.90;;;;;;5087272;28;20004;-60
2023/03/17 02:02:33;;;;;;;;;;;11.10;99.90;;;;;;5078189;28;19974;-60
2023/03/17 02:04:59;;;;;;;;;;;11.20;99.90;;;;;;5075618;28;19916;-61
2023/03/17 02:07:25;;;;;;;;;;;11.10;99.90;;;;;;5078446;28;19912;-61
2023/03/17 02:09:52;;;;;;;;;;;11.10;99.90;;;;;;5070879;28;20000;-61
2023/03/17 02:12:18;;;;;;;;;;;11.10;99.90;;;;;;5072663;28;19920;-61
2023/03/17 02:14:43;;;;;;;;;;;11.10;99.90;;;;;;5073320;28;19916;-61
2023/03/17 02:17:09;;;;;;;;;;;11.10;99.90;;;;;;5078797;28;20379;-61
2023/03/17 02:19:34;;;;;;;;;;;11.10;99.90;;;;;;5086428;28;20011;-61
2023/03/17 02:22:01;;;;;;;;;;;11.10;99.90;;;;;;5083011;28;19943;-61
2023/03/17 02:24:30;;;;;;;;;;;11.20;99.90;;;;;;5077631;28;19965;-60
2023/03/17 02:26:57;;;;;;;;;;;11.20;99.90;;;;;;5077961;28;19965;-60
2023/03/17 02:29:23;;;;;;;;;;;11.30;99.90;;;;;;5087943;28;20669;-60
2023/03/17 02:31:48;;;;;;;;;;;11.30;99.90;;;;;;5075814;28;19920;-61
2023/03/17 02:34:14;;;;;;;;;;;11.30;99.90;;;;;;5082185;28;20329;-60
2023/03/17 02:36:40;;;;;;;;;;;11.30;99.90;;;;;;5073949;28;19912;-61
2023/03/17 02:39:06;;;;;;;;;;;11.30;99.90;;;;;;5072758;28;19920;-60
2023/03/17 02:41:33;;;;;;;;;;;11.40;99.90;;;;;;5082882;28;20465;-61
2023/03/17 02:43:59;;;;;;;;;;;11.40;99.90;;;;;;5077211;28;19913;-62
2023/03/17 02:46:25;;;;;;;;;;;11.50;99.90;;;;;;5080895;28;19919;-61
2023/03/17 02:48:50;;;;;;;;;;;11.50;99.90;;;;;;5082607;28;19920;-61
2023/03/17 02:51:16;;;;;;;;;;;11.50;99.90;;;;;;5072987;28;20280;-61
2023/03/17 02:53:42;;;;;;;;;;;11.50;99.90;;;;;;5059641;28;19912;-61
2023/03/17 02:56:08;;;;;;;;;;;11.50;99.90;;;;;;5073720;28;19919;-60
2023/03/17 02:58:34;;;;;;;;;;;11.50;99.90;;;;;;5072247;28;19920;-60
2023/03/17 03:01:00;;;;;;;;;;;11.60;99.90;;;;;;5083979;28;19916;-60
2023/03/17 03:03:25;;;;;;;;;;;11.60;99.90;;;;;;5074729;28;19990;-60
2023/03/17 03:05:51;;;;;;;;;;;11.60;99.90;;;;;;5078400;28;20302;-60
2023/03/17 03:08:17;;;;;;;;;;;11.70;99.90;;;;;;5072751;28;19919;-60
2023/03/17 03:10:43;;;;;;;;;;;11.70;99.90;;;;;;5072160;28;19912;-61
2023/03/17 03:13:08;;;;;;;;;;;11.70;99.90;;;;;;5072385;28;19913;-60
2023/03/17 03:15:34;;;;;;;;;;;11.70;99.90;;;;;;5072516;28;19917;-60
2023/03/17 03:18:00;;;;;;;;;;;11.70;99.90;;;;;;5070607;28;19917;-60
2023/03/17 03:20:28;;;;;;;;;;;11.80;99.90;;;;;;5062500;28;20213;-60
2023/03/17 03:22:53;;;;;;;;;;;11.90;99.90;;;;;;5076184;28;20359;-61
2023/03/17 03:25:19;;;;;;;;;;;11.90;99.90;;;;;;5072322;28;20421;-61
2023/03/17 03:27:45;;;;;;;;;;;11.90;99.90;;;;;;5079656;28;19912;-61
2023/03/17 03:30:11;;;;;;;;;;;11.90;99.90;;;;;;5070582;28;19912;-61
2023/03/17 03:32:36;;;;;;;;;;;12.00;99.90;;;;;;5063232;28;19936;-61
2023/03/17 03:35:03;;;;;;;;;;;12.00;99.90;;;;;;5077108;28;19912;-61
2023/03/17 03:37:28;;;;;;;;;;;12.00;99.90;;;;;;5070244;28;19961;-61
2023/03/17 03:39:54;;;;;;;;;;;12.00;99.90;;;;;;5067995;28;19929;-61
2023/03/17 03:42:20;;;;;;;;;;;12.00;99.90;;;;;;5072595;28;20391;-61
2023/03/17 03:44:45;;;;;;;;;;;12.10;99.90;;;;;;5072980;28;20275;-61
2023/03/17 03:47:11;;;;;;;;;;;12.10;99.90;;;;;;5068777;28;19912;-61
2023/03/17 03:49:36;;;;;;;;;;;12.00;99.90;;;;;;5077355;28;20336;-61
2023/03/17 03:52:02;;;;;;;;;;;12.10;99.90;;;;;;5074133;28;20006;-61
2023/03/17 03:54:28;;;;;;;;;;;12.00;99.90;;;;;;5069546;28;19972;-61
2023/03/17 03:56:54;;;;;;;;;;;12.10;99.90;;;;;;5071157;28;20004;-61
2023/03/17 03:59:19;;;;;;;;;;;12.10;99.90;;;;;;5069210;28;19920;-61
2023/03/17 04:01:45;;;;;;;;;;;12.10;99.90;;;;;;5069471;28;19998;-61
2023/03/17 04:04:10;;;;;;;;;;;12.10;99.90;;;;;;5074041;28;19913;-61
2023/03/17 04:06:36;;;;;;;;;;;12.10;99.90;;;;;;5067457;28;20464;-61
2023/03/17 04:09:02;;;;;;;;;;;12.00;99.90;;;;;;5074590;28;19912;-61
2023/03/17 04:11:28;;;;;;;;;;;12.00;99.90;;;;;;5070840;28;19913;-61
2023/03/17 04:13:53;;;;;;;;;;;12.10;99.90;;;;;;5075168;28;19923;-60
2023/03/17 04:16:19;;;;;;;;;;;12.10;99.90;;;;;;5070215;28;19920;-61
2023/03/17 04:18:45;;;;;;;;;;;12.10;99.90;;;;;;5069821;28;19916;-61
2023/03/17 04:21:11;;;;;;;;;;;12.10;99.90;;;;;;5068016;28;19920;-61
2023/03/17 04:23:36;;;;;;;;;;;12.10;99.90;;;;;;5068298;28;19912;-61
2023/03/17 04:26:03;;;;;;;;;;;12.10;99.90;;;;;;5074656;28;19913;-61
2023/03/17 04:28:29;;;;;;;;;;;12.10;99.90;;;;;;5071541;28;20018;-60
2023/03/17 04:30:55;;;;;;;;;;;12.10;99.90;;;;;;5083419;28;19923;-60
2023/03/17 04:33:21;;;;;;;;;;;12.10;99.90;;;;;;5076586;28;19912;-61
2023/03/17 04:35:46;;;;;;;;;;;12.10;99.90;;;;;;5068728;28;19912;-61
2023/03/17 04:38:12;;;;;;;;;;;12.00;99.90;;;;;;5079182;28;20012;-61
2023/03/17 04:40:38;;;;;;;;;;;11.90;99.90;;;;;;5070568;28;20002;-62
2023/03/17 04:43:03;;;;;;;;;;;11.90;99.90;;;;;;5074207;28;19919;-61
2023/03/17 04:45:29;;;;;;;;;;;11.80;99.90;;;;;;5064816;28;19921;-62
2023/03/17 04:47:54;;;;;;;;;;;11.80;99.90;;;;;;5073159;28;19964;-61
2023/03/17 04:50:20;;;;;;;;;;;11.70;99.90;;;;;;5081728;28;19919;-61
2023/03/17 04:52:46;;;;;;;;;;;11.70;99.90;;;;;;5074829;28;19912;-61
2023/03/17 04:55:11;;;;;;;;;;;11.70;99.90;;;;;;5076541;28;19912;-61
2023/03/17 04:57:37;;;;;;;;;;;11.60;99.90;;;;;;5082261;28;19912;-61
2023/03/17 05:00:04;;;;;;;;;;;11.50;99.90;;;;;;5077263;28;20264;-61
2023/03/17 05:02:30;;;;;;;;;;;11.50;99.90;;;;;;5059025;28;19917;-61
2023/03/17 05:04:56;;;;;;;;;;;11.40;99.90;;;;;;5083448;28;19919;-61
2023/03/17 05:07:21;;;;;;;;;;;11.30;99.90;;;;;;5075325;28;19975;-60
2023/03/17 05:09:47;;;;;;;;;;;11.30;99.90;;;;;;5072714;28;19920;-60
2023/03/17 05:12:13;;;;;;;;;;;11.30;99.90;;;;;;5067012;28;20352;-60
2023/03/17 05:14:38;;;;;;;;;;;11.20;99.90;;;;;;5075377;28;19919;-60
2023/03/17 05:17:04;;;;;;;;;;;11.20;99.90;;;;;;5072740;28;19927;-62
2023/03/17 05:19:29;;;;;;;;;;;11.20;99.90;;;;;;5084923;28;19924;-61
2023/03/17 05:21:55;;;;;;;;;;;11.20;99.90;;;;;;5077437;28;19912;-60
2023/03/17 05:24:21;;;;;;;;;;;11.20;99.90;;;;;;5073412;28;19927;-60
2023/03/17 05:26:46;;;;;;;;;;;11.20;99.90;;;;;;5067966;28;19913;-61
2023/03/17 05:29:13;;;;;;;;;;;11.20;99.90;;;;;;5065544;28;19912;-62
2023/03/17 05:31:39;;;;;;;;;;;11.20;99.90;;;;;;5072220;28;20249;-61
2023/03/17 05:34:04;;;;;;;;;;;11.30;99.90;;;;;;5070267;28;19966;-60
2023/03/17 05:36:30;;;;;;;;;;;11.30;99.90;;;;;;5072001;28;19912;-61
2023/03/17 05:38:56;;;;;;;;;;;11.30;99.90;;;;;;5079639;28;19920;-61
2023/03/17 05:41:22;;;;;;;;;;;11.30;99.90;;;;;;5067161;28;19966;-61
2023/03/17 05:43:47;;;;;;;;;;;11.30;99.90;;;;;;5071431;28;19952;-61
2023/03/17 05:46:13;;;;;;;;;;;11.20;99.90;;;;;;5075531;28;20007;-62
2023/03/17 05:48:39;;;;;;;;;;;11.30;99.90;;;;;;5079841;28;19926;-61
2023/03/17 05:51:05;;;;;;;;;;;11.20;99.90;;;;;;5069412;28;19959;-60
2023/03/17 05:53:31;;;;;;;;;;;11.20;99.90;;;;;;5071555;28;19913;-60
2023/03/17 05:55:56;;;;;;;;;;;11.20;99.90;;;;;;5076464;28;19912;-60
2023/03/17 05:58:22;;;;;;;;;;;11.20;99.90;;;;;;5066277;28;19928;-60
2023/03/17 06:00:47;;;;;;;;;;;11.30;99.90;;;;;;5069875;28;19912;-59
2023/03/17 06:03:13;;;;;;;;;;;11.30;99.90;;;;;;5072483;28;20379;-60
2023/03/17 06:05:39;;;;;;;;;;;11.30;99.90;;;;;;5072268;28;19927;-60
2023/03/17 06:08:05;;;;;;;;;;;11.40;99.90;;;;;;5070241;28;19928;-59
2023/03/17 06:10:31;;;;;;;;;;;11.40;99.90;;;;;;5069655;28;19921;-61
2023/03/17 06:12:57;;;;;;;;;;;11.50;99.90;;;;;;5067332;28;20395;-60
2023/03/17 06:15:23;;;;;;;;;;;11.50;99.90;;;;;;5069641;28;20349;-60
2023/03/17 06:17:49;;;;;;;;;;;11.50;99.90;;;;;;5068970;28;19965;-61
2023/03/17 06:20:15;;;;;;;;;;;11.50;99.90;;;;;;5071079;28;20295;-61
2023/03/17 06:22:41;;;;;;;;;;;11.60;99.90;;;;;;5069215;28;19913;-60
2023/03/17 06:25:07;;;;;;;;;;;11.60;99.90;;;;;;5068476;28;20433;-60
2023/03/17 06:27:32;;;;;;;;;;;11.60;99.90;;;;;;5069294;28;19912;-61
2023/03/17 06:29:59;;;;;;;;;;;11.60;99.90;;;;;;5071220;28;19914;-62
2023/03/17 06:32:24;;;;;;;;;;;11.60;99.90;;;;;;5070703;28;20339;-60
2023/03/17 06:34:50;;;;;;;;;;;11.50;99.90;;;;;;5069075;28;20007;-61
2023/03/17 06:37:16;;;;;;;;;;;11.50;99.90;;;;;;5067332;28;19913;-63
2023/03/17 06:39:42;;;;;;;;;;;11.50;99.90;;;;;;5073381;28;19955;-62
2023/03/17 06:42:08;;;;;;;;;;;11.50;99.90;;;;;;5067243;28;20356;-61
2023/03/17 06:44:33;;;;;;;;;;;11.40;99.90;;;;;;5068648;28;19961;-60
2023/03/17 06:46:59;;;;;;;;;;;11.40;99.90;;;;;;5070955;28;19919;-60
2023/03/17 06:49:25;;;;;;;;;;;11.50;99.90;;;;;;5067151;28;20344;-61
2023/03/17 06:51:50;;;;;;;;;;;11.60;99.90;;;;;;5068746;28;19912;-60
2023/03/17 06:54:17;;;;;;;;;;;11.60;99.90;;;;;;5062805;28;20379;-61
2023/03/17 06:56:43;;;;;;;;;;;11.60;99.90;;;;;;5069271;28;20334;-59
2023/03/17 06:59:10;;;;;;;;;;;11.80;99.90;;;;;;5069354;28;19920;-60
2023/03/17 07:01:37;;;;;;;;;;;11.80;99.90;;;;;;5070876;28;19958;-59
2023/03/17 07:04:02;;;;;;;;;;;11.80;99.90;;;;;;5061817;28;20048;-60
2023/03/17 07:06:28;;;;;;;;;;;11.90;99.90;;;;;;5062752;28;20010;-59
2023/03/17 07:08:53;;;;;;;;;;;11.90;99.90;;;;;;5066503;28;20357;-59
2023/03/17 07:11:19;;;;;;;;;;;12.00;99.90;;;;;;5063751;28;19913;-59
2023/03/17 07:13:45;;;;;;;;;;;12.00;99.90;;;;;;5059509;28;19916;-60
2023/03/17 07:16:12;;;;;;;;;;;12.10;99.90;;;;;;5068632;28;19913;-60
2023/03/17 07:18:38;;;;;;;;;;;12.00;99.90;;;;;;5077459;28;19956;-60
2023/03/17 07:21:04;;;;;;;;;;;12.10;99.90;;;;;;5063374;28;19952;-60
2023/03/17 07:23:29;;;;;;;;;;;12.20;99.90;;;;;;5062687;28;19912;-59
2023/03/17 07:25:56;;;;;;;;;;;12.10;99.90;;;;;;5067007;28;20306;-59
2023/03/17 07:28:21;;;;;;;;;;;12.20;99.90;;;;;;5064879;28;19912;-59
2023/03/17 07:30:48;;;;;;;;;;;12.20;99.90;;;;;;5066880;28;19912;-61
2023/03/17 07:33:13;;;;;;;;;;;12.30;99.90;;;;;;5069768;28;19912;-60
2023/03/17 07:35:39;;;;;;;;;;;12.30;99.90;;;;;;5064467;28;19973;-60
2023/03/17 07:38:05;;;;;;;;;;;12.40;99.90;;;;;;5063625;28;19923;-60
2023/03/17 07:40:30;;;;;;;;;;;12.40;99.90;;;;;;5073001;28;20284;-60
2023/03/17 07:42:56;;;;;;;;;;;12.40;99.90;;;;;;5065706;28;19997;-60
2023/03/17 07:45:22;;;;;;;;;;;12.40;99.90;;;;;;5065481;28;19913;-60
2023/03/17 07:47:47;;;;;;;;;;;12.50;99.90;;;;;;5067879;28;19920;-59
2023/03/17 07:50:14;;;;;;;;;;;12.50;99.90;;;;;;5072341;28;20306;-61
2023/03/17 07:52:39;;;;;;;;;;;12.50;99.90;;;;;;5066318;28;19960;-60
2023/03/17 07:55:09;;;;;;;;;;;12.50;99.90;;;;;;5071880;28;19921;-60
2023/03/17 07:57:35;;;;;;;;;;;12.40;99.90;;;;;;5075305;28;19922;-60
2023/03/17 08:00:01;;;;;;;;;;;12.50;99.90;;;;;;5072213;28;19920;-60
2023/03/17 08:02:26;;;;;;;;;;;12.40;99.90;;;;;;5064766;28;19923;-59
2023/03/17 08:04:52;;;;;;;;;;;12.50;99.90;;;;;;5062356;28;20338;-61
2023/03/17 08:07:18;;;;;;;;;;;12.60;99.90;;;;;;5066489;28;19927;-60
2023/03/17 08:09:44;;;;;;;;;;;12.60;99.90;;;;;;5061250;28;20536;-59
2023/03/17 08:12:09;;;;;;;;;;;12.60;99.90;;;;;;5062434;28;20287;-60
2023/03/17 08:14:35;;;;;;;;;;;12.60;99.90;;;;;;5062940;28;19923;-60
2023/03/17 08:17:01;;;;;;;;;;;12.70;99.90;;;;;;5064599;28;19923;-59
2023/03/17 08:19:26;;;;;;;;;;;12.70;99.90;;;;;;5065234;28;20046;-59
2023/03/17 08:21:52;;;;;;;;;;;12.70;99.90;;;;;;5071561;28;20314;-59
2023/03/17 08:24:18;;;;;;;;;;;12.70;99.90;;;;;;5072154;28;19912;-59
2023/03/17 08:26:46;;;;;;;;;;;12.70;99.90;;;;;;5066338;28;20312;-60
2023/03/17 08:29:12;;;;;;;;;;;12.70;99.90;;;;;;5074098;28;19912;-59
2023/03/17 08:31:39;;;;;;;;;;;12.70;99.90;;;;;;5064332;28;19993;-59
2023/03/17 08:34:04;;;;;;;;;;;12.70;99.90;;;;;;5067435;28;19997;-59
2023/03/17 08:36:30;;;;;;;;;;;12.70;99.90;;;;;;5074933;28;19920;-59
2023/03/17 08:38:55;;;;;;;;;;;12.60;99.90;;;;;;5074773;28;19923;-59
2023/03/17 08:41:22;;;;;;;;;;;12.70;99.90;;;;;;5064786;28;19951;-59
2023/03/17 08:43:49;;;;;;;;;;;12.70;99.90;;;;;;5071002;28;19913;-60
2023/03/17 08:46:17;;;;;;;;;;;12.70;99.90;;;;;;5070412;28;19916;-60
2023/03/17 08:48:44;;;;;;;;;;;12.70;99.90;;;;;;5069573;28;19939;-59
2023/03/17 08:51:10;;;;;;;;;;;12.80;99.90;;;;;;5071071;28;19916;-60
2023/03/17 08:53:36;;;;;;;;;;;12.80;99.90;;;;;;5075376;28;19917;-59
2023/03/17 08:56:03;;;;;;;;;;;12.90;99.90;;;;;;5069170;28;19916;-58
2023/03/17 08:58:29;;;;;;;;;;;12.90;99.90;;;;;;5065907;28;20314;-58
2023/03/17 09:00:59;;;;;;;;;;;12.90;99.90;;;;;;5071598;28;20026;-59
2023/03/17 09:03:25;;;;;;;;;;;12.90;99.90;;;;;;5067799;28;19970;-62
2023/03/17 09:05:50;;;;;;;;;;;12.90;99.90;;;;;;5070875;28;19917;-62
2023/03/17 09:08:16;;;;;;;;;;;12.90;99.90;;;;;;5068901;28;19920;-60
2023/03/17 09:10:42;;;;;;;;;;;12.80;99.90;;;;;;5070759;28;19913;-62
2023/03/17 09:13:07;;;;;;;;;;;12.80;99.90;;;;;;5068362;28;20390;-61
2023/03/17 09:15:33;;;;;;;;;;;12.70;99.90;;;;;;5068060;28;19966;-61
2023/03/17 09:18:00;;;;;;;;;;;12.70;99.90;;;;;;5068748;28;19920;-64
2023/03/17 09:20:25;;;;;;;;;;;12.70;99.90;;;;;;5069571;28;19927;-64
2023/03/17 09:22:51;;;;;;;;;;;12.60;99.90;;;;;;5069781;28;20375;-64
2023/03/17 09:25:17;;;;;;;;;;;12.50;99.90;;;;;;5066061;28;19912;-63
2023/03/17 09:27:43;;;;;;;;;;;12.50;99.90;;;;;;5072144;28;20378;-62
2023/03/17 09:30:10;;;;;;;;;;;12.50;99.90;;;;;;5069138;28;19912;-63
2023/03/17 09:32:36;;;;;;;;;;;12.60;99.90;;;;;;5066691;28;19917;-62
2023/03/17 09:35:04;;;;;;;;;;;12.60;99.90;;;;;;5067374;28;20062;-62
2023/03/17 09:37:29;;;;;;;;;;;12.80;99.90;;;;;;5068407;28;19973;-61
2023/03/17 09:39:56;;;;;;;;;;;12.80;99.90;;;;;;5067823;28;19928;-61
2023/03/17 09:42:35;;;;;;;;;;;12.90;99.90;;;;;;5063766;28;20031;-62
2023/03/17 09:45:05;;;;;;;;;;;12.90;99.90;;;;;;5068542;28;19948;-61
2023/03/17 09:47:30;;;;;;;;;;;12.90;99.90;;;;;;5072254;28;19921;-61
2023/03/17 09:49:58;;;;;;;;;;;12.90;99.90;;;;;;5068935;28;19955;-61
2023/03/17 09:52:27;;;;;;;;;;;12.80;99.90;;;;;;5067069;28;20545;-61
2023/03/17 09:54:53;;;;;;;;;;;12.90;99.90;;;;;;5066346;28;20419;-62
2023/03/17 09:57:21;;;;;;;;;;;12.90;99.90;;;;;;5062186;28;19920;-62
2023/03/17 09:59:49;;;;;;;;;;;12.90;99.90;;;;;;5066063;28;19932;-61
2023/03/17 10:02:18;;;;;;;;;;;13.00;99.90;;;;;;5061551;28;19924;-60
2023/03/17 10:04:45;;;;;;;;;;;13.00;99.90;;;;;;5064301;28;19919;-62
2023/03/17 10:07:14;;;;;;;;;;;13.10;99.90;;;;;;5061702;28;20030;-61
2023/03/17 10:09:49;;;;;;;;;;;13.10;99.90;;;;;;5063446;28;19912;-60
2023/03/17 10:12:23;;;;;;;;;;;13.00;99.90;;;;;;5063610;28;19917;-61
2023/03/17 10:15:10;;;;;;;;;;;12.90;99.90;;;;;;5067710;28;19969;-64
2023/03/17 10:17:38;;;;;;;;;;;12.70;99.90;;;;;;5069293;28;19951;-62
2023/03/17 10:20:07;;;;;;;;;;;12.60;99.90;;;;;;5070283;28;19921;-60
2023/03/17 10:22:38;;;;;;;;;;;12.60;99.90;;;;;;5062900;28;20336;-59
2023/03/17 10:25:08;;;;;;;;;;;12.60;99.90;;;;;;5063263;28;20054;-61
2023/03/17 10:27:36;;;;;;;;;;;12.60;99.90;;;;;;5062201;28;20434;-60
2023/03/17 10:30:01;;;;;;;;;;;12.50;99.90;;;;;;5069034;28;19913;-61
2023/03/17 10:32:29;;;;;;;;;;;12.60;99.90;;;;;;5075353;28;20391;-60
2023/03/17 10:34:55;;;;;;;;;;;12.60;99.90;;;;;;5065729;28;19917;-60
2023/03/17 10:37:22;;;;;;;;;;;12.40;99.90;;;;;;5069336;28;19919;-61
2023/03/17 10:39:53;;;;;;;;;;;12.50;99.90;;;;;;5067591;28;19943;-60
2023/03/17 10:42:22;;;;;;;;;;;12.50;99.90;;;;;;5068286;28;19913;-60
2023/03/17 10:44:49;;;;;;;;;;;12.60;99.90;;;;;;5070293;28;19924;-61
2023/03/17 10:47:21;;;;;;;;;;;12.80;99.90;;;;;;5060544;28;19931;-61
2023/03/17 10:49:47;;;;;;;;;;;13.00;99.90;;;;;;5073834;28;19919;-60
2023/03/17 10:52:19;;;;;;;;;;;13.10;99.90;;;;;;5062995;28;19913;-60
2023/03/17 10:54:50;;;;;;;;;;;13.20;99.90;;;;;;5062096;28;19921;-61
2023/03/17 10:57:17;;;;;;;;;;;13.10;99.90;;;;;;5070530;28;19985;-64
2023/03/17 10:59:46;;;;;;;;;;;13.10;99.90;;;;;;5036196;22;20249;-59
2023/03/17 11:02:33;;;;;;;;;;;13.00;99.90;;;;;;5005676;28;20364;-58
2023/03/17 11:05:00;;;;;;;;;;;12.90;99.90;;;;;;5002906;28;19914;-60
2023/03/17 11:07:33;;;;;;;;;;;12.80;99.90;;;;;;5010717;28;19925;-58
2023/03/17 11:10:01;;;;;;;;;;;12.70;99.90;;;;;;5005360;28;19914;-60
2023/03/17 11:12:32;;;;;;;;;;;12.80;99.90;;;;;;5009768;28;20328;-58
2023/03/17 11:15:00;;;;;;;;;;;12.80;99.90;;;;;;5008599;28;19913;-58
2023/03/17 11:17:42;;;;;;;;;;;12.80;99.90;;;;;;5011559;28;20373;-59
2023/03/17 11:20:10;;;;;;;;;;;12.90;99.90;;;;;;5003973;28;19956;-60
2023/03/17 11:22:37;;;;;;;;;;;12.80;99.90;;;;;;5008160;28;19913;-59
2023/03/17 11:25:14;;;;;;;;;;;12.80;99.90;;;;;;5008771;28;20373;-60
2023/03/17 11:27:46;;;;;;;;;;;13.00;99.90;;;;;;4999800;28;20009;-60
2023/03/17 11:30:18;;;;;;;;;;;13.00;99.90;;;;;;5000819;28;19929;-59
2023/03/17 11:33:13;;;;;;;;;;;13.00;99.90;;;;;;5009291;28;20320;-60
2023/03/17 11:35:42;;;;;;;;;;;12.90;99.90;;;;;;4987103;28;19924;-60
2023/03/17 11:38:11;;;;;;;;;;;12.80;99.90;;;;;;4982477;28;19919;-59
2023/03/17 11:40:42;;;;;;;;;;;12.70;99.90;;;;;;4985339;28;19928;-60
2023/03/17 11:43:11;;;;;;;;;;;12.60;99.90;;;;;;4989062;28;20012;-60
2023/03/17 11:45:55;;;;;;;;;;;12.60;99.90;;;;;;4985189;28;19922;-60
2023/03/17 11:48:41;;;;;;;;;;;12.60;99.90;;;;;;4981179;28;21133;-60
2023/03/17 11:51:19;;;;;;;;;;;12.60;99.90;;;;;;4978912;28;20004;-60
2023/03/17 11:53:53;;;;;;;;;;;12.60;99.90;;;;;;4982644;28;19944;-60
2023/03/17 11:56:19;;;;;;;;;;;12.50;99.90;;;;;;4979477;28;19913;-60
2023/03/17 11:58:57;;;;;;;;;;;12.40;99.90;;;;;;4985526;28;19922;-59
2023/03/17 12:01:26;;;;;;;;;;;12.40;99.90;;;;;;4978461;28;19920;-61
2023/03/17 12:04:09;;;;;;;;;;;12.50;99.90;;;;;;4986956;28;19913;-60
2023/03/17 12:06:38;;;;;;;;;;;12.60;99.90;;;;;;4985727;28;20441;-59
2023/03/17 12:09:18;;;;;;;;;;;12.60;99.90;;;;;;4982458;28;19952;-60
2023/03/17 12:11:45;;;;;;;;;;;12.80;99.90;;;;;;4988343;28;20403;-59
2023/03/17 12:14:31;;;;;;;;;;;12.70;99.90;;;;;;5007609;28;19963;-60
2023/03/17 12:17:18;;;;;;;;;;;12.70;99.90;;;;;;5016672;28;20438;-60
2023/03/17 12:19:53;;;;;;;;;;;12.60;99.90;;;;;;5010463;28;19956;-59
2023/03/17 12:22:19;;;;;;;;;;;12.70;99.90;;;;;;5007419;28;20013;-59
2023/03/17 12:24:56;;;;;;;;;;;12.60;99.90;;;;;;5008892;28;20428;-59
2023/03/17 12:27:26;;;;;;;;;;;12.60;99.90;;;;;;5005711;28;20423;-60
2023/03/17 12:29:57;;;;;;;;;;;12.70;99.90;;;;;;5012568;28;19921;-60
2023/03/17 12:32:25;;;;;;;;;;;12.70;99.90;;;;;;5010167;28;19922;-61
2023/03/17 12:34:53;;;;;;;;;;;12.80;99.90;;;;;;5008744;28;20366;-59
2023/03/17 12:37:20;;;;;;;;;;;12.80;99.90;;;;;;5007186;28;20013;-59
2023/03/17 12:39:54;;;;;;;;;;;12.70;99.90;;;;;;5012321;28;19926;-61
2023/03/17 12:42:27;;;;;;;;;;;12.70;99.90;;;;;;5007146;28;20334;-60
2023/03/17 12:45:13;;;;;;;;;;;12.80;99.90;;;;;;5005052;28;20354;-60
2023/03/17 12:47:58;;;;;;;;;;;12.80;99.90;;;;;;5010542;28;19917;-60
2023/03/17 12:50:26;;;;;;;;;;;12.90;99.90;;;;;;5013062;28;19914;-60
2023/03/17 12:53:11;;;;;;;;;;;13.00;99.90;;;;;;5019350;28;19920;-59
2023/03/17 12:55:37;;;;;;;;;;;13.00;99.90;;;;;;5014449;28;19928;-63
2023/03/17 12:58:06;;;;;;;;;;;13.10;99.90;;;;;;5013940;28;20119;-60
2023/03/17 13:00:33;;;;;;;;;;;13.20;99.90;;;;;;5013641;28;20002;-59
2023/03/17 13:03:13;;;;;;;;;;;13.10;99.90;;;;;;5010034;28;20004;-61
2023/03/17 13:05:43;;;;;;;;;;;13.30;99.90;;;;;;5011791;28;19990;-59
2023/03/17 13:08:12;;;;;;;;;;;13.50;99.90;;;;;;5014057;28;20051;-60
2023/03/17 13:10:42;;;;;;;;;;;13.70;99.90;;;;;;5008976;28;19921;-60
2023/03/17 13:13:12;;;;;;;;;;;13.90;99.90;;;;;;5009308;28;19921;-58
2023/03/17 13:15:38;;;;;;;;;;;14.00;99.90;;;;;;5010474;28;19929;-59
2023/03/17 13:18:13;;;;;;;;;;;14.10;99.90;;;;;;5013269;28;19920;-60
2023/03/17 13:20:59;;;;;;;;;;;14.10;99.90;;;;;;5010113;28;19921;-61
2023/03/17 13:23:43;;;;;;;;;;;14.00;99.90;;;;;;5013345;28;20535;-59
2023/03/17 13:26:20;;;;;;;;;;;13.80;99.90;;;;;;5008677;28;19913;-59
2023/03/17 13:28:47;;;;;;;;;;;13.80;99.90;;;;;;5010297;28;19949;-59
2023/03/17 13:31:30;;;;;;;;;;;14.10;99.90;;;;;;5010592;28;19967;-59
2023/03/17 13:34:15;;;;;;;;;;;14.60;99.90;;;;;;5008434;28;20012;-59
2023/03/17 13:36:47;;;;;;;;;;;14.80;99.90;;;;;;5013403;28;20339;-59
2023/03/17 13:39:25;;;;;;;;;;;15.20;99.90;;;;;;5007733;28;19917;-58
2023/03/17 13:42:10;;;;;;;;;;;15.20;99.90;;;;;;5000655;28;20008;-58
2023/03/17 13:45:04;;;;;;;;;;;15.00;99.90;;;;;;5011448;28;20012;-59
2023/03/17 13:47:29;;;;;;;;;;;14.40;99.90;;;;;;5008661;28;19914;-58
2023/03/17 13:49:59;;;;;;;;;;;14.20;99.90;;;;;;5011735;28;20281;-60
2023/03/17 13:52:37;;;;;;;;;;;14.20;99.90;;;;;;5008507;28;20485;-58
2023/03/17 13:55:23;;;;;;;;;;;14.60;99.90;;;;;;5027567;28;19917;-58
2023/03/17 13:58:09;;;;;;;;;;;14.40;99.90;;;;;;5010470;28;19920;-58
2023/03/17 14:00:36;;;;;;;;;;;14.60;99.90;;;;;;5009663;28;19975;-58
2023/03/17 14:03:05;;;;;;;;;;;14.50;99.90;;;;;;5017172;28;20361;-58
2023/03/17 14:05:34;;;;;;;;;;;14.40;99.90;;;;;;5016019;28;19947;-59
2023/03/17 14:08:20;;;;;;;;;;;14.50;99.90;;;;;;5014523;28;19918;-59
2023/03/17 14:10:56;;;;;;;;;;;14.90;99.90;;;;;;5013543;28;19920;-60
2023/03/17 14:13:24;;;;;;;;;;;15.50;99.90;;;;;;5005182;28;19992;-58
2023/03/17 14:16:08;;;;;;;;;;;16.40;99.90;;;;;;5004852;28;19914;-59
2023/03/17 14:18:36;;;;;;;;;;;16.40;99.90;;;;;;5008226;28;19960;-59
2023/03/17 14:21:05;;;;;;;;;;;17.00;99.90;;;;;;5013736;28;20435;-59
2023/03/17 14:23:32;;;;;;;;;;;17.10;99.90;;;;;;5011044;28;19963;-58